DNEN

Details ICAO DNEN (ENU)
Name ENUGU
Region Nigeria
Timezone Africa/Lagos (UTC+1.0)
Plans Departing 10
Arriving 10
Stats Elevation 466 ft / 142 m (AMSL)
Location 6.474051° 7.561609°
Runways 1
Magnetic Variation 1.137° W
Sunrise 2018-05-27 05:14:37 UTC / 2018-05-27 06:14:37 Local
Sunset 2018-05-27 17:42:05 UTC / 2018-05-27 18:42:05 Local
Advertisement - Login to hide

Runways

ID Width Length Bearing (true) Bearing (mag) Surface Threshold Offset Overrun Length
08 148 ft / 45 m 7,873 ft / 2,400 m 80.07° 81.21° Asphalt 0 ft / 0 m 215 ft / 66 m
26 148 ft / 45 m 7,873 ft / 2,400 m 260.08° 261.22° Asphalt 0 ft / 0 m 215 ft / 66 m

Map

Weather


0- 5 10 15 20 25 30 35+ Temperature / ° C

Clouds and Precipitation
Forecast for 2018-05-27 00:00 UTC. Updated 3 hours ago

Ground ~20,000 ft ~40,000 ft Winds

METAR

Not found

TAF

TAF DNEN 262130Z 2700/2806 23010KT 8000 TS SCT009 FEW020CB TEMPO 2704/2710 0601836KT 3000 -TSRA BKN008 FEW018CB

Frequencies

Tower 123.30 MHz TWR
Warning: Do not use this data for real-world aviation or navigation. No guarantee of current accuracy is given.